Time;durP1;ratioP1;P1;durP2;ratioP2;P2;SDS_P1;SDS_P2;PMS_P1;PMS_P2;Temp;Humidity;BMP_temperature;BMP_pressure;BME280_temperature;BME280_humidity;BME280_pressure;Samples;Min_cycle;Max_cycle;Signal;HPM_P1;HPM_P2
2023/07/24 00:02:58;;;;;;;3.57;2.73;;;18.50;99.90;;;;;;8202315;28;20255;-66
2023/07/24 00:07:00;;;;;;;3.60;2.83;;;18.50;99.90;;;;;;8201607;28;20204;-65
2023/07/24 00:11:02;;;;;;;4.20;3.27;;;18.60;99.90;;;;;;8203043;28;20279;-67
2023/07/24 00:15:04;;;;;;;3.53;3.17;;;18.70;99.90;;;;;;8218627;28;20219;-65
2023/07/24 00:19:05;;;;;;;4.00;3.20;;;18.90;99.90;;;;;;8202682;28;20203;-65
2023/07/24 00:23:06;;;;;;;4.30;3.27;;;18.90;99.90;;;;;;8205568;28;20225;-68
2023/07/24 00:27:07;;;;;;;3.53;2.70;;;19.00;99.90;;;;;;8203589;28;20224;-68
2023/07/24 00:31:13;;;;;;;5.33;3.10;;;19.00;99.90;;;;;;8202694;28;20283;-66
2023/07/24 00:35:14;;;;;;;4.73;3.03;;;19.00;99.90;;;;;;8202391;28;20189;-68
2023/07/24 00:39:15;;;;;;;3.20;2.90;;;19.00;99.90;;;;;;8205352;28;20196;-66
2023/07/24 00:43:16;;;;;;;4.77;3.40;;;19.10;99.90;;;;;;8204167;28;20300;-67
2023/07/24 00:47:18;;;;;;;3.30;2.80;;;19.10;99.90;;;;;;8203829;28;20197;-68
2023/07/24 00:51:19;;;;;;;3.80;2.93;;;19.10;99.90;;;;;;8219310;28;20196;-66
2023/07/24 00:55:20;;;;;;;4.83;2.97;;;19.20;99.90;;;;;;8202401;28;20200;-66
2023/07/24 00:59:21;;;;;;;5.23;3.20;;;19.20;99.90;;;;;;8213957;28;20196;-68
2023/07/24 01:03:31;;;;;;;4.80;3.20;;;19.20;99.90;;;;;;8197561;28;20228;-67
2023/07/24 01:07:35;;;;;;;3.83;3.03;;;19.10;99.90;;;;;;8205380;28;20239;-69
2023/07/24 01:11:50;;;;;;;4.53;3.33;;;19.10;99.90;;;;;;8203312;28;20199;-66
2023/07/24 01:16:21;;;;;;;3.93;2.80;;;19.10;99.90;;;;;;8202521;28;20215;-66
2023/07/24 01:20:24;;;;;;;4.40;3.27;;;19.10;99.90;;;;;;8200185;28;20216;-67
2023/07/24 01:24:36;;;;;;;4.23;3.30;;;19.10;99.90;;;;;;8184211;28;20232;-66
2023/07/24 01:28:37;;;;;;;4.07;3.20;;;19.20;99.90;;;;;;8201303;28;20209;-67
2023/07/24 01:32:41;;;;;;;3.90;3.13;;;19.20;99.90;;;;;;8196757;28;20210;-66
2023/07/24 01:36:42;;;;;;;3.33;2.90;;;19.30;99.90;;;;;;8203666;28;20197;-67
2023/07/24 01:40:43;;;;;;;3.97;2.97;;;19.30;99.90;;;;;;8202247;28;20198;-65
2023/07/24 01:44:44;;;;;;;3.60;2.87;;;19.40;99.90;;;;;;8201141;28;20223;-66
2023/07/24 01:48:46;;;;;;;4.93;2.90;;;19.40;99.90;;;;;;8202192;28;20200;-66
2023/07/24 01:52:47;;;;;;;4.40;3.30;;;19.50;99.90;;;;;;8203306;28;20196;-68
2023/07/24 01:56:48;;;;;;;4.43;2.80;;;19.60;99.90;;;;;;8218237;28;20201;-66
2023/07/24 02:00:48;;;;;;;4.00;3.00;;;19.60;99.90;;;;;;8200444;28;20185;-67
2023/07/24 02:04:49;;;;;;;3.33;2.90;;;19.60;99.90;;;;;;8202965;28;20228;-69
2023/07/24 02:08:51;;;;;;;4.07;3.07;;;19.50;99.90;;;;;;8200667;28;20284;-66
2023/07/24 02:12:55;;;;;;;4.10;2.90;;;19.40;99.90;;;;;;8199881;28;20283;-67
2023/07/24 02:16:56;;;;;;;3.23;2.83;;;19.30;99.90;;;;;;8215980;28;20193;-67
2023/07/24 02:20:58;;;;;;;3.67;2.70;;;19.20;99.90;;;;;;8202294;28;20191;-66
2023/07/24 02:24:59;;;;;;;6.20;2.67;;;19.10;99.90;;;;;;8198402;28;20271;-64
2023/07/24 02:28:59;;;;;;;3.63;2.90;;;19.10;99.90;;;;;;8202764;28;20189;-66
2023/07/24 02:33:00;;;;;;;3.17;2.80;;;19.20;99.90;;;;;;8214976;28;20197;-65
2023/07/24 02:37:01;;;;;;;3.73;2.80;;;19.20;99.90;;;;;;8200928;28;20185;-69
2023/07/24 02:41:02;;;;;;;4.53;3.03;;;19.20;99.90;;;;;;8199993;28;20196;-67
2023/07/24 02:45:03;;;;;;;4.30;2.80;;;19.30;99.90;;;;;;8198746;28;20220;-67
2023/07/24 02:49:04;;;;;;;3.40;2.67;;;19.30;99.90;;;;;;8198494;28;20255;-66
2023/07/24 02:53:08;;;;;;;4.37;2.90;;;19.30;99.90;;;;;;8201410;28;20199;-67
2023/07/24 02:57:09;;;;;;;3.13;2.70;;;19.20;99.90;;;;;;8199731;28;20290;-67
2023/07/24 03:01:12;;;;;;;4.03;2.70;;;19.10;99.90;;;;;;8202045;28;20280;-67
2023/07/24 03:05:13;;;;;;;3.23;2.93;;;19.00;99.90;;;;;;8207606;28;20228;-67
2023/07/24 03:09:13;;;;;;;3.33;2.63;;;19.00;99.90;;;;;;8200995;28;20197;-66
2023/07/24 03:13:14;;;;;;;3.77;2.70;;;18.90;99.90;;;;;;8205751;28;20224;-67
2023/07/24 03:17:15;;;;;;;3.27;2.87;;;18.90;99.90;;;;;;8209654;28;20184;-66
2023/07/24 03:21:16;;;;;;;2.97;2.50;;;18.90;99.90;;;;;;8205203;28;20202;-66
2023/07/24 03:25:17;;;;;;;3.10;2.70;;;18.90;99.90;;;;;;8206199;28;20272;-67
2023/07/24 03:29:18;;;;;;;3.83;3.20;;;19.00;99.90;;;;;;8206259;28;20220;-65
2023/07/24 03:33:18;;;;;;;4.10;3.17;;;19.00;99.90;;;;;;8204214;28;20287;-67
2023/07/24 03:37:23;;;;;;;3.57;3.10;;;19.10;99.90;;;;;;8202578;28;20287;-66
2023/07/24 03:41:23;;;;;;;3.43;2.87;;;19.10;99.90;;;;;;8221946;28;20263;-67
2023/07/24 03:45:24;;;;;;;3.63;3.00;;;19.20;99.90;;;;;;8202794;28;20212;-66
2023/07/24 03:49:29;;;;;;;5.93;3.37;;;19.30;99.90;;;;;;8203110;28;20184;-66
2023/07/24 03:53:37;;;;;;;4.53;2.80;;;19.40;99.90;;;;;;8204647;28;20252;-67
2023/07/24 03:57:38;;;;;;;3.57;2.80;;;19.50;99.90;;;;;;8202917;28;20185;-67
2023/07/24 04:01:39;;;;;;;3.90;3.10;;;19.60;99.90;;;;;;8202580;28;20196;-67
2023/07/24 04:05:40;;;;;;;2.90;2.60;;;19.70;99.90;;;;;;8218908;28;20228;-66
2023/07/24 04:09:41;;;;;;;3.40;2.87;;;19.80;99.90;;;;;;8204428;28;20263;-66
2023/07/24 04:13:42;;;;;;;3.90;2.97;;;20.00;99.90;;;;;;8201683;28;20224;-66
2023/07/24 04:17:43;;;;;;;4.03;3.30;;;20.10;99.90;;;;;;8206450;28;20181;-66
2023/07/24 04:21:43;;;;;;;3.80;3.00;;;20.20;99.90;;;;;;8200764;28;20188;-67
2023/07/24 04:25:44;;;;;;;4.17;3.20;;;20.40;99.90;;;;;;8208537;28;20189;-68
2023/07/24 04:29:45;;;;;;;3.43;2.77;;;20.50;99.90;;;;;;8207995;28;20283;-67
2023/07/24 04:33:46;;;;;;;3.37;2.87;;;20.60;99.90;;;;;;8202210;28;20193;-66
2023/07/24 04:37:47;;;;;;;4.60;3.07;;;20.70;99.90;;;;;;8218105;28;20235;-68
2023/07/24 04:41:48;;;;;;;3.40;2.60;;;20.90;99.90;;;;;;8204017;28;20215;-66
2023/07/24 04:45:49;;;;;;;3.83;2.97;;;21.00;99.90;;;;;;8203634;28;20199;-67
2023/07/24 04:49:50;;;;;;;4.67;3.33;;;21.10;99.90;;;;;;8201592;28;20189;-67
2023/07/24 04:53:51;;;;;;;2.90;2.60;;;21.30;99.90;;;;;;8201327;28;20196;-67
2023/07/24 04:57:52;;;;;;;4.17;3.07;;;21.50;99.90;;;;;;8200820;28;20205;-67
2023/07/24 05:01:52;;;;;;;3.77;2.87;;;21.70;99.90;;;;;;8204935;28;20205;-68
2023/07/24 05:05:56;;;;;;;3.67;3.03;;;21.80;99.90;;;;;;8195289;28;20279;-65
2023/07/24 05:09:57;;;;;;;3.03;2.73;;;22.00;99.90;;;;;;8209997;28;20191;-64
2023/07/24 05:13:58;;;;;;;3.13;2.67;;;22.10;99.90;;;;;;8209627;28;20204;-66
2023/07/24 05:17:59;;;;;;;3.13;2.80;;;22.10;99.90;;;;;;8210536;28;20278;-65
2023/07/24 05:22:00;;;;;;;4.33;3.17;;;22.20;99.90;;;;;;8216686;28;20219;-64
2023/07/24 05:26:02;;;;;;;3.50;2.80;;;22.30;99.90;;;;;;8200843;28;20177;-65
2023/07/24 05:30:05;;;;;;;3.30;3.00;;;22.50;99.90;;;;;;8202603;28;20191;-65
2023/07/24 05:34:06;;;;;;;3.50;3.20;;;22.60;99.90;;;;;;8214194;28;20193;-63
2023/07/24 05:38:07;;;;;;;3.50;3.00;;;22.80;99.90;;;;;;8203541;28;20227;-65
2023/07/24 05:42:08;;;;;;;4.63;2.73;;;22.90;99.90;;;;;;8198183;28;20218;-65
2023/07/24 05:46:09;;;;;;;4.73;3.40;;;23.10;99.90;;;;;;8216784;28;20196;-64
2023/07/24 05:50:13;;;;;;;4.33;3.07;;;23.20;99.90;;;;;;8201120;28;20197;-66
2023/07/24 05:54:17;;;;;;;5.00;3.30;;;23.20;99.90;;;;;;8201143;28;20244;-67
2023/07/24 05:58:17;;;;;;;4.53;3.50;;;23.30;99.90;;;;;;8198461;28;20199;-67
2023/07/24 06:02:25;;;;;;;7.30;3.30;;;23.40;99.90;;;;;;8200062;28;20208;-64
2023/07/24 06:06:28;;;;;;;4.77;3.33;;;23.50;99.90;;;;;;8220833;28;20283;-66
2023/07/24 06:10:28;;;;;;;4.47;3.30;;;23.60;99.90;;;;;;8206089;28;20188;-66
2023/07/24 06:14:30;;;;;;;4.50;3.47;;;23.80;99.90;;;;;;8205782;28;20195;-66
2023/07/24 06:18:37;;;;;;;8.30;3.67;;;24.20;99.90;;;;;;8196957;28;20275;-68
2023/07/24 06:22:38;;;;;;;4.60;3.30;;;24.60;99.90;;;;;;8202458;28;20216;-68
2023/07/24 06:26:46;;;;;;;7.10;3.43;;;24.80;99.90;;;;;;8200010;28;20190;-68
2023/07/24 06:30:47;;;;;;;5.23;3.00;;;25.00;99.90;;;;;;8196370;28;20188;-66
2023/07/24 06:34:49;;;;;;;4.70;3.20;;;25.30;99.90;;;;;;8195130;28;20254;-66
2023/07/24 06:38:49;;;;;;;4.93;3.60;;;25.60;99.90;;;;;;8199496;28;20200;-67
2023/07/24 06:42:50;;;;;;;5.20;3.50;;;25.70;99.90;;;;;;8203032;28;20219;-67
2023/07/24 06:46:51;;;;;;;4.60;3.20;;;25.90;99.90;;;;;;8211723;28;20203;-67
2023/07/24 06:50:52;;;;;;;5.10;3.30;;;25.90;99.90;;;;;;8207812;28;20199;-67
2023/07/24 06:54:52;;;;;;;9.23;3.20;;;25.90;99.90;;;;;;8212263;28;20204;-68
2023/07/24 06:58:53;;;;;;;4.47;3.67;;;26.00;99.90;;;;;;8213923;28;20200;-66
2023/07/24 07:02:54;;;;;;;4.20;3.47;;;26.20;99.90;;;;;;8203922;28;20326;-66
2023/07/24 07:06:55;;;;;;;5.00;3.33;;;26.50;99.90;;;;;;8204246;28;20200;-68
2023/07/24 07:10:57;;;;;;;4.50;3.70;;;26.60;99.90;;;;;;8205367;28;20248;-67
2023/07/24 07:14:58;;;;;;;4.17;3.20;;;26.50;99.90;;;;;;8220103;28;20200;-69
2023/07/24 07:19:02;;;;;;;6.43;3.42;;;26.60;99.90;;;;;;8201320;28;20197;-67
2023/07/24 07:23:02;;;;;;;5.45;3.53;;;26.90;99.90;;;;;;8204939;28;20212;-66
2023/07/24 07:27:04;;;;;;;5.28;3.67;;;27.30;99.90;;;;;;8204535;28;20193;-66
2023/07/24 07:31:05;;;;;;;5.45;3.08;;;27.90;99.90;;;;;;8203468;28;20185;-65
2023/07/24 07:35:06;;;;;;;8.52;2.95;;;28.20;99.90;;;;;;8207221;28;20184;-66
2023/07/24 07:39:07;;;;;;;4.43;3.10;;;28.40;99.90;;;;;;8204544;28;20193;-67
2023/07/24 07:43:10;;;;;;;7.47;3.10;;;28.60;99.90;;;;;;8206690;28;20216;-68
2023/07/24 07:47:11;;;;;;;5.25;3.28;;;27.90;99.90;;;;;;8199187;28;20193;-67
2023/07/24 07:51:12;;;;;;;3.33;2.88;;;27.80;99.90;;;;;;8202851;28;20299;-71
2023/07/24 07:55:13;;;;;;;3.30;3.00;;;27.90;99.90;;;;;;8203338;28;20283;-72
2023/07/24 07:59:14;;;;;;;3.40;3.00;;;28.30;99.90;;;;;;8201123;28;20292;-68
2023/07/24 08:03:15;;;;;;;3.88;2.80;;;28.30;99.90;;;;;;8207136;28;20230;-69
2023/07/24 08:07:16;;;;;;;6.88;3.50;;;27.60;99.90;;;;;;8206627;28;20204;-71
2023/07/24 08:11:17;;;;;;;3.47;2.63;;;27.50;99.90;;;;;;8206758;28;20221;-68
2023/07/24 08:15:18;;;;;;;3.60;2.80;;;27.50;99.90;;;;;;8218999;28;20224;-71
2023/07/24 08:19:18;;;;;;;4.55;3.00;;;27.30;99.90;;;;;;8204356;28;20185;-71
2023/07/24 08:23:19;;;;;;;3.38;2.70;;;27.50;99.90;;;;;;8204763;28;20213;-69
2023/07/24 08:27:20;;;;;;;4.32;2.85;;;27.70;99.90;;;;;;8205363;28;20185;-70
2023/07/24 08:31:21;;;;;;;5.32;3.25;;;27.90;99.90;;;;;;8198506;28;20188;-69
2023/07/24 08:35:25;;;;;;;5.88;2.85;;;27.70;99.90;;;;;;8203200;28;20236;-66
2023/07/24 08:39:26;;;;;;;10.02;3.20;;;27.70;99.90;;;;;;8203226;28;20222;-66
2023/07/24 08:43:29;;;;;;;5.90;2.70;;;27.60;99.90;;;;;;8197515;28;20241;-66
2023/07/24 08:47:30;;;;;;;3.30;2.85;;;27.40;99.90;;;;;;8200803;28;20181;-67
2023/07/24 08:51:32;;;;;;;5.97;2.90;;;27.50;99.90;;;;;;8217738;28;20328;-70
2023/07/24 08:55:34;;;;;;;3.63;3.00;;;28.00;99.90;;;;;;8215578;28;20220;-68
2023/07/24 08:59:35;;;;;;;7.07;3.28;;;28.10;99.90;;;;;;8217918;28;20188;-68
2023/07/24 09:03:36;;;;;;;5.95;3.10;;;28.20;99.90;;;;;;8210200;28;20220;-67
2023/07/24 09:07:38;;;;;;;6.13;3.15;;;28.30;99.90;;;;;;8197194;28;20299;-67
2023/07/24 09:12:08;;;;;;;4.63;2.97;;;28.20;99.90;;;;;;8217851;28;20252;-66
2023/07/24 09:16:23;;;;;;;6.18;2.63;;;28.20;99.90;;;;;;8201994;28;20259;-66
2023/07/24 09:20:26;;;;;;;6.82;3.22;;;28.60;99.90;;;;;;8201891;28;20180;-66
2023/07/24 09:24:28;;;;;;;3.45;2.90;;;29.00;99.90;;;;;;8199652;28;20220;-67
2023/07/24 09:28:28;;;;;;;4.43;3.28;;;29.20;99.90;;;;;;8216014;28;20180;-66
2023/07/24 09:32:31;;;;;;;4.00;3.08;;;29.40;99.90;;;;;;8199854;28;20211;-69
2023/07/24 09:36:38;;;;;;;4.30;3.35;;;29.80;99.90;;;;;;8203266;28;20192;-68
2023/07/24 09:40:40;;;;;;;3.75;3.10;;;29.70;99.90;;;;;;8200222;28;20188;-66
2023/07/24 09:44:41;;;;;;;4.88;3.30;;;29.00;99.90;;;;;;8203900;28;20250;-69
2023/07/24 09:48:42;;;;;;;3.47;3.17;;;29.20;99.90;;;;;;8198171;28;20188;-69
2023/07/24 09:52:44;;;;;;;3.40;2.60;;;29.70;99.90;;;;;;8219658;28;20195;-72
2023/07/24 09:56:47;;;;;;;6.80;3.30;;;30.00;99.90;;;;;;8203349;28;20247;-69
2023/07/24 10:00:49;;;;;;;3.45;2.75;;;30.40;99.90;;;;;;8197749;28;20235;-70
2023/07/24 10:04:51;;;;;;;4.97;2.75;;;30.80;99.90;;;;;;8201265;28;20306;-72
2023/07/24 10:08:53;;;;;;;6.07;3.45;;;31.10;99.90;;;;;;8197938;28;20300;-73
2023/07/24 10:12:54;;;;;;;6.57;3.22;;;31.50;99.90;;;;;;8207306;28;20206;-70
2023/07/24 10:16:56;;;;;;;3.53;3.20;;;31.60;99.90;;;;;;8205995;28;20189;-70
2023/07/24 10:21:13;;;;;;;4.40;3.22;;;31.60;99.90;;;;;;8208076;28;20208;-71
2023/07/24 10:25:14;;;;;;;4.72;3.95;;;31.80;99.90;;;;;;8205445;28;20221;-71
2023/07/24 10:29:15;;;;;;;4.72;3.92;;;31.40;99.90;;;;;;8224084;28;20189;-70
2023/07/24 10:33:20;;;;;;;4.05;3.60;;;31.40;99.90;;;;;;8206042;28;20188;-72
2023/07/24 10:37:35;;;;;;;4.53;3.90;;;31.60;99.90;;;;;;8211393;28;20192;-70
2023/07/24 10:41:37;;;;;;;5.60;3.83;;;31.60;99.90;;;;;;8208348;28;20180;-68
2023/07/24 10:45:50;;;;;;;4.07;3.35;;;31.50;99.90;;;;;;8208989;28;20212;-69
2023/07/24 10:49:51;;;;;;;5.13;4.10;;;31.80;99.90;;;;;;8207367;28;20185;-72
2023/07/24 10:53:53;;;;;;;4.35;3.22;;;32.20;99.90;;;;;;8203360;28;20247;-72
2023/07/24 10:57:54;;;;;;;5.30;4.38;;;32.90;99.90;;;;;;8210329;28;20185;-71
2023/07/24 11:01:56;;;;;;;4.97;3.72;;;33.20;99.90;;;;;;8207552;28;20193;-71
2023/07/24 11:05:58;;;;;;;5.63;4.00;;;33.20;99.90;;;;;;8203376;28;20220;-70
2023/07/24 11:09:59;;;;;;;5.28;4.47;;;33.00;99.90;;;;;;8221704;28;20192;-71
2023/07/24 11:14:04;;;;;;;4.90;4.40;;;33.10;99.90;;;;;;8220038;28;20185;-71
2023/07/24 11:18:08;;;;;;;5.47;4.88;;;33.40;99.90;;;;;;8207990;28;20193;-72
2023/07/24 11:22:09;;;;;;;11.13;5.43;;;33.10;99.90;;;;;;8205148;28;20209;-68
2023/07/24 11:26:10;;;;;;;6.57;5.45;;;33.10;99.90;;;;;;8204608;28;20188;-70
2023/07/24 11:30:20;;;;;;;7.13;5.75;;;32.70;99.90;;;;;;8221052;28;20231;-74
2023/07/24 11:34:24;;;;;;;7.78;5.50;;;32.60;99.90;;;;;;8199871;28;20193;-69
2023/07/24 11:38:25;;;;;;;7.00;5.40;;;32.40;99.90;;;;;;8210866;28;20188;-67
2023/07/24 11:42:27;;;;;;;8.70;5.55;;;31.90;99.90;;;;;;8197453;28;20216;-67
2023/07/24 11:46:32;;;;;;;8.18;5.47;;;32.20;99.90;;;;;;8205026;28;20272;-68
2023/07/24 11:50:46;;;;;;;6.70;5.18;;;32.20;99.90;;;;;;8217668;28;20221;-74
2023/07/24 11:55:00;;;;;;;10.07;5.95;;;32.20;99.90;;;;;;8202400;28;20272;-69
2023/07/24 11:59:20;;;;;;;6.10;5.28;;;32.10;99.90;;;;;;8200514;28;20224;-71
2023/07/24 12:03:30;;;;;;;10.65;6.00;;;31.70;99.90;;;;;;8196493;28;20286;-67
2023/07/24 12:07:35;;;;;;;6.05;5.30;;;31.70;99.90;;;;;;8149290;28;1628558;-70
2023/07/24 12:11:46;;;;;;;10.27;5.30;;;32.10;99.90;;;;;;8197673;28;20205;-71
2023/07/24 12:15:49;;;;;;;7.25;5.97;;;32.40;99.90;;;;;;8200423;28;20250;-67
2023/07/24 12:19:50;;;;;;;9.13;6.00;;;32.50;99.90;;;;;;8203253;28;20304;-68
2023/07/24 12:23:51;;;;;;;8.32;6.47;;;32.30;99.90;;;;;;8200362;28;20223;-74
2023/07/24 12:27:52;;;;;;;8.82;5.68;;;32.00;99.90;;;;;;8223194;28;20184;-69
2023/07/24 12:31:53;;;;;;;10.55;6.28;;;31.70;99.90;;;;;;8201830;28;20312;-69
2023/07/24 12:35:54;;;;;;;7.63;6.07;;;31.70;99.90;;;;;;8204325;28;20185;-66
2023/07/24 12:39:55;;;;;;;8.55;6.03;;;31.50;99.90;;;;;;8218724;28;20196;-72
2023/07/24 12:43:56;;;;;;;8.82;6.47;;;31.50;99.90;;;;;;8204507;28;20212;-68
2023/07/24 12:47:57;;;;;;;8.45;6.53;;;31.50;99.90;;;;;;8210591;28;20180;-71
2023/07/24 12:51:57;;;;;;;11.32;6.40;;;31.50;99.90;;;;;;8202751;28;20180;-70
2023/07/24 12:55:58;;;;;;;8.05;6.03;;;31.10;99.90;;;;;;8220485;28;20213;-68
2023/07/24 12:59:59;;;;;;;7.65;6.00;;;30.80;99.90;;;;;;8203254;28;20191;-69
2023/07/24 13:04:00;;;;;;;9.07;5.32;;;30.20;99.90;;;;;;8207849;28;20217;-68
2023/07/24 13:08:01;;;;;;;6.47;5.57;;;29.70;99.90;;;;;;8217151;28;20196;-67
2023/07/24 13:12:10;;;;;;;6.55;5.22;;;29.50;99.90;;;;;;8204661;28;20189;-70
2023/07/24 13:16:11;;;;;;;5.75;5.07;;;29.40;99.90;;;;;;8206114;28;20189;-72
2023/07/24 13:20:13;;;;;;;6.32;5.03;;;29.30;99.90;;;;;;8197454;28;20185;-72
2023/07/24 13:24:15;;;;;;;8.48;4.93;;;29.10;99.90;;;;;;8201784;28;20216;-66
2023/07/24 13:28:16;;;;;;;5.60;5.03;;;28.80;99.90;;;;;;8200644;28;20193;-72
2023/07/24 13:32:17;;;;;;;5.47;4.85;;;28.60;99.90;;;;;;8207281;28;20339;-76
2023/07/24 13:36:18;;;;;;;7.00;5.40;;;28.80;99.90;;;;;;8199118;28;20192;-67
2023/07/24 13:40:19;;;;;;;8.43;5.75;;;28.90;99.90;;;;;;8201445;28;20200;-71
2023/07/24 13:44:20;;;;;;;6.03;5.20;;;28.80;99.90;;;;;;8201446;28;20220;-72
2023/07/24 13:48:22;;;;;;;6.57;5.38;;;28.80;99.90;;;;;;8200255;28;20203;-71
2023/07/24 13:52:23;;;;;;;6.68;5.18;;;28.80;99.90;;;;;;8205529;28;20188;-66
2023/07/24 14:00:49;;;;;;;10.07;5.68;;;28.90;99.90;;;;;;8201036;28;20244;-66
2023/07/24 14:04:50;;;;;;;7.10;5.97;;;28.90;99.90;;;;;;8205474;28;20216;-66
2023/07/24 14:08:51;;;;;;;9.45;6.20;;;28.90;99.90;;;;;;8198003;28;20192;-67
2023/07/24 14:12:52;;;;;;;10.43;6.43;;;29.00;99.90;;;;;;8201885;28;20196;-72
2023/07/24 14:16:53;;;;;;;9.20;5.82;;;29.30;99.90;;;;;;8201560;28;20227;-71
2023/07/24 14:20:56;;;;;;;9.45;6.43;;;29.50;99.90;;;;;;8203282;28;20197;-69
2023/07/24 14:24:57;;;;;;;7.57;6.50;;;29.50;99.90;;;;;;8216075;28;20282;-70
2023/07/24 14:28:58;;;;;;;13.80;6.82;;;29.20;99.90;;;;;;8202732;28;20184;-72
2023/07/24 14:32:58;;;;;;;9.23;6.30;;;29.00;99.90;;;;;;8202697;28;20189;-71
2023/07/24 14:36:59;;;;;;;7.47;6.05;;;29.40;99.90;;;;;;8204725;28;20200;-71
2023/07/24 14:41:00;;;;;;;13.68;7.15;;;29.80;99.90;;;;;;8202043;28;20214;-69
2023/07/24 14:45:01;;;;;;;8.25;6.65;;;30.10;99.90;;;;;;8202956;28;20286;-72
2023/07/24 14:49:05;;;;;;;8.85;6.43;;;30.20;99.90;;;;;;8197647;28;20307;-74
2023/07/24 14:53:06;;;;;;;9.00;6.35;;;30.10;99.90;;;;;;8200682;28;20185;-70
2023/07/24 14:57:09;;;;;;;8.30;6.60;;;29.60;99.90;;;;;;8205702;28;20228;-71
2023/07/24 15:01:13;;;;;;;9.27;5.80;;;29.20;99.90;;;;;;8211106;28;20193;-69
2023/07/24 15:05:14;;;;;;;8.52;6.53;;;29.20;99.90;;;;;;8203021;28;20221;-70
2023/07/24 15:09:15;;;;;;;10.80;6.70;;;29.10;99.90;;;;;;8209367;28;20201;-68
2023/07/24 15:13:16;;;;;;;11.43;6.50;;;28.80;99.90;;;;;;8204082;28;20192;-70
2023/07/24 15:17:18;;;;;;;8.73;6.60;;;28.70;99.90;;;;;;8210473;28;20192;-70
2023/07/24 15:21:19;;;;;;;10.57;6.60;;;28.80;99.90;;;;;;8209504;28;20192;-67
2023/07/24 15:25:20;;;;;;;8.50;6.93;;;28.70;99.90;;;;;;8204715;28;20223;-68
2023/07/24 15:29:21;;;;;;;11.10;6.47;;;28.60;99.90;;;;;;8220709;28;20203;-71
2023/07/24 15:33:22;;;;;;;6.15;5.55;;;28.60;99.90;;;;;;8206503;28;20256;-71
2023/07/24 15:37:24;;;;;;;13.20;7.00;;;28.50;99.90;;;;;;8204753;28;20492;-73
2023/07/24 15:41:24;;;;;;;12.40;6.72;;;28.60;99.90;;;;;;8204191;28;20209;-69
2023/07/24 15:45:25;;;;;;;10.05;6.75;;;28.80;99.90;;;;;;8204013;28;20220;-68
2023/07/24 15:49:26;;;;;;;7.03;6.10;;;28.90;99.90;;;;;;8202817;28;20185;-72
2023/07/24 15:53:28;;;;;;;10.88;6.53;;;28.80;99.90;;;;;;8206869;28;20191;-70
2023/07/24 15:57:29;;;;;;;14.95;6.95;;;28.90;99.90;;;;;;8218417;28;20184;-72
2023/07/24 16:01:30;;;;;;;10.05;7.13;;;28.70;99.90;;;;;;8219581;28;20196;-73
2023/07/24 16:05:30;;;;;;;10.57;6.55;;;28.10;99.90;;;;;;8205808;28;20212;-68
2023/07/24 16:09:31;;;;;;;9.52;6.80;;;27.70;99.90;;;;;;8224028;28;20300;-72
2023/07/24 16:13:32;;;;;;;10.10;6.60;;;27.50;99.90;;;;;;8197574;28;20196;-70
2023/07/24 16:17:33;;;;;;;8.45;6.93;;;27.50;99.90;;;;;;8211328;28;20199;-73
2023/07/24 16:21:34;;;;;;;7.40;6.43;;;27.50;99.90;;;;;;8205376;28;20215;-69
2023/07/24 16:25:35;;;;;;;9.25;6.63;;;27.50;99.90;;;;;;8207508;28;20224;-73
2023/07/24 16:29:36;;;;;;;8.15;6.47;;;27.50;99.90;;;;;;8204376;28;20185;-76
2023/07/24 16:33:36;;;;;;;8.98;6.50;;;27.50;99.90;;;;;;8204288;28;20215;-68
2023/07/24 16:37:38;;;;;;;11.15;7.20;;;27.50;99.90;;;;;;8203909;28;20210;-68
2023/07/24 16:41:39;;;;;;;8.57;6.47;;;27.50;99.90;;;;;;8220465;28;20238;-73
2023/07/24 16:45:39;;;;;;;8.18;6.60;;;27.20;99.90;;;;;;8204092;28;20219;-70
2023/07/24 16:49:40;;;;;;;10.30;7.95;;;27.10;99.90;;;;;;8217928;28;20181;-73
2023/07/24 16:53:42;;;;;;;8.87;6.43;;;26.90;99.90;;;;;;8202034;28;20196;-70
2023/07/24 16:57:44;;;;;;;8.67;7.13;;;26.90;99.90;;;;;;8199634;28;20196;-70
2023/07/24 17:01:45;;;;;;;9.10;6.70;;;26.90;99.90;;;;;;8200312;28;20193;-71
2023/07/24 17:05:46;;;;;;;9.77;6.53;;;26.90;99.90;;;;;;8223514;28;20240;-70
2023/07/24 17:09:47;;;;;;;9.50;6.80;;;27.00;99.90;;;;;;8197427;28;20193;-71
2023/07/24 17:13:48;;;;;;;9.37;7.43;;;27.20;99.90;;;;;;8202353;28;20189;-69
2023/07/24 17:17:50;;;;;;;7.45;6.45;;;27.40;99.90;;;;;;8205745;28;20215;-74
2023/07/24 17:21:51;;;;;;;8.23;7.15;;;27.60;99.90;;;;;;8206180;28;20225;-73
2023/07/24 17:25:52;;;;;;;8.38;6.88;;;27.70;99.90;;;;;;8220983;28;20248;-70
2023/07/24 17:29:53;;;;;;;8.02;6.47;;;27.80;99.90;;;;;;8218279;28;20199;-68
2023/07/24 17:33:54;;;;;;;8.18;6.70;;;27.80;99.90;;;;;;8204747;28;20188;-71
2023/07/24 17:37:55;;;;;;;10.70;6.32;;;28.20;99.90;;;;;;8223412;28;20216;-70
2023/07/24 17:41:55;;;;;;;6.85;5.85;;;28.90;99.90;;;;;;8200902;28;20269;-70
2023/07/24 17:45:59;;;;;;;6.65;5.53;;;29.40;99.90;;;;;;8220451;28;20319;-70
2023/07/24 17:50:03;;;;;;;6.68;5.15;;;29.50;99.90;;;;;;8202463;28;20196;-70
2023/07/24 17:54:04;;;;;;;6.68;4.90;;;29.50;99.90;;;;;;8202096;28;20193;-73
2023/07/24 17:58:07;;;;;;;5.50;4.40;;;29.30;99.90;;;;;;8205660;28;20200;-67
2023/07/24 18:02:16;;;;;;;5.88;5.03;;;29.20;99.90;;;;;;8197784;28;20192;-67
2023/07/24 18:06:17;;;;;;;6.22;4.90;;;29.30;99.90;;;;;;8188835;28;20197;-68
2023/07/24 18:10:20;;;;;;;6.20;5.00;;;29.30;99.90;;;;;;8209763;28;20265;-66
2023/07/24 18:14:22;;;;;;;7.60;5.07;;;29.50;99.90;;;;;;8194750;28;20272;-68
2023/07/24 18:18:32;;;;;;;6.53;4.97;;;29.70;99.90;;;;;;8192686;28;20196;-68
2023/07/24 18:22:33;;;;;;;6.82;5.22;;;29.70;99.90;;;;;;8192256;28;20220;-66
2023/07/24 18:26:35;;;;;;;5.80;4.80;;;28.90;99.90;;;;;;8197705;28;20196;-65
2023/07/24 18:30:36;;;;;;;5.82;5.22;;;27.90;99.90;;;;;;8195827;28;20269;-65
2023/07/24 18:34:37;;;;;;;6.00;5.40;;;27.10;99.90;;;;;;8207550;28;20188;-66
2023/07/24 18:38:38;;;;;;;5.27;4.77;;;26.40;99.90;;;;;;8204798;28;20192;-67
2023/07/24 18:42:39;;;;;;;6.63;5.37;;;25.80;99.90;;;;;;8202180;28;20215;-66
2023/07/24 18:46:45;;;;;;;6.87;5.40;;;25.40;99.90;;;;;;8196750;28;20184;-66
2023/07/24 18:50:48;;;;;;;6.33;5.27;;;25.00;99.90;;;;;;8208585;28;20292;-68
2023/07/24 18:54:49;;;;;;;8.37;5.47;;;24.70;99.90;;;;;;8212817;28;20196;-65
2023/07/24 18:58:50;;;;;;;5.90;4.93;;;24.40;99.90;;;;;;8221745;28;20239;-68
2023/07/24 19:02:51;;;;;;;7.77;5.60;;;24.10;99.90;;;;;;8208180;28;20216;-67
2023/07/24 19:06:52;;;;;;;7.17;5.57;;;23.90;99.90;;;;;;8203721;28;20200;-67
2023/07/24 19:10:53;;;;;;;7.07;5.63;;;23.70;99.90;;;;;;8223236;28;20191;-65
2023/07/24 19:14:54;;;;;;;6.50;5.80;;;23.60;99.90;;;;;;8208353;28;20188;-67
2023/07/24 19:18:57;;;;;;;6.83;5.63;;;23.50;99.90;;;;;;8212071;28;20192;-67
2023/07/24 19:22:59;;;;;;;7.67;5.97;;;23.40;99.90;;;;;;8209647;28;20201;-65
2023/07/24 19:26:59;;;;;;;6.83;5.80;;;23.30;99.90;;;;;;8207245;28;20268;-65
2023/07/24 19:31:01;;;;;;;6.80;5.47;;;23.20;99.90;;;;;;8213008;28;20180;-68
2023/07/24 19:35:02;;;;;;;7.60;5.93;;;23.00;99.90;;;;;;8225371;28;20283;-65
2023/07/24 19:39:05;;;;;;;7.23;5.60;;;22.90;99.90;;;;;;8214233;28;20277;-67
2023/07/24 19:43:06;;;;;;;7.43;5.53;;;22.70;99.90;;;;;;8211039;28;20223;-67
2023/07/24 19:47:08;;;;;;;6.10;5.50;;;22.50;99.90;;;;;;8210412;28;20248;-66
2023/07/24 19:51:09;;;;;;;5.97;5.27;;;22.40;99.90;;;;;;8211586;28;20192;-66
2023/07/24 19:55:10;;;;;;;6.70;5.33;;;22.30;99.90;;;;;;8209585;28;20232;-65
2023/07/24 19:59:12;;;;;;;8.77;5.80;;;22.20;99.90;;;;;;8207464;28;20196;-67
2023/07/24 20:03:19;;;;;;;6.20;5.30;;;22.20;99.90;;;;;;8224711;28;20254;-66
2023/07/24 20:07:20;;;;;;;8.93;5.07;;;22.10;99.90;;;;;;8203319;28;20227;-65
2023/07/24 20:11:21;;;;;;;7.80;5.23;;;22.00;99.90;;;;;;8205863;28;20275;-65
2023/07/24 20:15:22;;;;;;;7.37;5.53;;;21.90;99.90;;;;;;8205317;28;20220;-67
2023/07/24 20:19:23;;;;;;;5.33;4.67;;;21.80;99.90;;;;;;8224322;28;20256;-65
2023/07/24 20:23:25;;;;;;;7.23;5.70;;;21.70;99.90;;;;;;8221063;28;20208;-65
2023/07/24 20:27:25;;;;;;;7.70;5.63;;;21.60;99.90;;;;;;8208854;28;20296;-65
2023/07/24 20:31:26;;;;;;;5.90;5.10;;;21.60;99.90;;;;;;8210184;28;20291;-67
2023/07/24 20:35:29;;;;;;;8.40;5.10;;;21.50;99.90;;;;;;8211121;28;20188;-64
2023/07/24 20:39:30;;;;;;;8.07;5.67;;;21.40;99.90;;;;;;8210823;28;20188;-66
2023/07/24 20:43:31;;;;;;;7.13;5.47;;;21.30;99.90;;;;;;8209530;28;20213;-65
2023/07/24 20:47:32;;;;;;;7.07;5.80;;;21.40;99.90;;;;;;8211129;28;20185;-64
2023/07/24 20:51:33;;;;;;;6.80;5.03;;;21.30;99.90;;;;;;8210140;28;20192;-65
2023/07/24 20:55:34;;;;;;;6.57;5.03;;;21.30;99.90;;;;;;8221537;28;20193;-65
2023/07/24 20:59:35;;;;;;;8.13;5.40;;;21.40;99.90;;;;;;8208764;28;20199;-66
2023/07/24 21:03:36;;;;;;;7.50;5.87;;;21.60;99.90;;;;;;8221807;28;20216;-65